Paramount Hamilton — 2CWB2 — position and weather

sailwx.info

Track history (hours):
 
Tides and Currents Weather Stations Pressure Air Temp Water Temp Dewpoint Dewpoint Depression Visibility Wind Speed Wind Dir Waves Ship Positions

Paramount Hamilton

Last reported at 2018-Jun-24 14:58 UTC. Time now 2018-Jun-24 15:02 UTC.
Position N 29°44' W 095°01'.

Length 249 m; draft 11.3 m.

Type: Tanker. MMSI: 235076274.

Date/timePositionNaut miles runAvg speedWind from/ knotsBaromVisibWave heightAir tempDewpointWater temp
2018-Jun-24 14:58N 29°44' W 095°01'0 0.0
2018-Jun-24 14:25N 29°44' W 095°01'0 0.0
2018-Jun-24 13:58N 29°44' W 095°01'0 0.0
2018-Jun-24 13:28N 29°44' W 095°01'0 0.0
2018-Jun-24 12:58N 29°44' W 095°01'0 0.0
2018-Jun-24 12:16N 29°44' W 095°01'0 0.0
2018-Jun-24 11:58N 29°44' W 095°01'0 0.0
2018-Jun-23 22:24N 29°44' W 095°01'1 2.0
2018-Jun-23 21:57N 29°43' W 095°01'3 6.9
2018-Jun-23 21:28N 29°40' W 094°59'4 9.3
2018-Jun-23 21:00N 29°36' W 094°57'5 9.9
2018-Jun-23 20:29N 29°32' W 094°54'510.1
2018-Jun-23 20:00N 29°28' W 094°51'510.3
2018-Jun-23 19:30N 29°23' W 094°49'5 9.6
2018-Jun-23 19:01N 29°21' W 094°44'510.2
2018-Jun-23 18:30N 29°19' W 094°38'6 9.1
2018-Jun-23 17:48N 29°15' W 094°32'1 1.7
2018-Jun-23 17:23N 29°15' W 094°32'2 4.2
2018-Jun-23 17:00N 29°14' W 094°33'3 6.4
2018-Jun-23 16:30N 29°13' W 094°37'3 5.7
2018-Jun-23 16:00N 29°12' W 094°40'2 4.6
2018-Jun-23 15:30N 29°11' W 094°42'0 0.4
2018-Jun-23 14:59N 29°11' W 094°42'0 0.0
2018-Jun-23 14:29N 29°11' W 094°42'0 0.0
2018-Jun-23 13:59N 29°11' W 094°42'0 0.0
2018-Jun-23 13:29N 29°11' W 094°42'0 0.0
2018-Jun-23 12:59N 29°11' W 094°42'0 0.0
2018-Jun-23 12:29N 29°11' W 094°42'0 0.0
2018-Jun-23 11:59N 29°11' W 094°42'0 0.0
2018-Jun-23 11:29N 29°12' W 094°42'0 0.0
2018-Jun-23 10:59N 29°12' W 094°42'0 0.0
2018-Jun-23 10:29N 29°12' W 094°42'0 0.0
2018-Jun-23 09:59N 29°12' W 094°42'0 0.0
2018-Jun-23 09:29N 29°12' W 094°42'0 0.0
2018-Jun-23 08:59N 29°12' W 094°42'0 0.0
2018-Jun-23 08:29N 29°12' W 094°42'0 0.0
2018-Jun-23 07:59N 29°12' W 094°42'0 0.0
2018-Jun-23 07:29N 29°12' W 094°42'0 0.0
2018-Jun-23 06:56N 29°12' W 094°42'0 0.0
2018-Jun-23 06:29N 29°12' W 094°42'0 0.0
2018-Jun-23 05:59N 29°12' W 094°42'0 0.0
2018-Jun-23 05:29N 29°12' W 094°42'0 0.0
2018-Jun-23 04:59N 29°12' W 094°42'0 0.0
2018-Jun-23 04:29N 29°12' W 094°42'0 0.0
2018-Jun-23 03:59N 29°12' W 094°42'0 0.0
2018-Jun-23 03:29N 29°12' W 094°42'0 0.0
2018-Jun-23 02:59N 29°12' W 094°42'0 0.0
2018-Jun-23 02:29N 29°12' W 094°42'0 0.0
2018-Jun-23 01:59N 29°12' W 094°42'0 0.0
2018-Jun-23 01:29N 29°12' W 094°42'0 0.0
2018-Jun-23 00:59N 29°12' W 094°42'0 0.0
2018-Jun-23 00:29N 29°12' W 094°42'0 0.0
2018-Jun-22 23:59N 29°12' W 094°42'0 0.0
2018-Jun-22 23:29N 29°12' W 094°43'0 0.0
2018-Jun-22 22:59N 29°12' W 094°43'0 0.0
2018-Jun-22 22:29N 29°12' W 094°43'0 0.0
2018-Jun-22 21:59N 29°12' W 094°43'0 0.0
2018-Jun-22 21:29N 29°12' W 094°43'0 0.0
2018-Jun-22 20:59N 29°12' W 094°43'0 0.0
2018-Jun-22 20:29N 29°12' W 094°43'0 0.0
2018-Jun-22 19:59N 29°12' W 094°43'0 0.0
2018-Jun-22 19:29N 29°12' W 094°43'0 0.0
2018-Jun-22 18:59N 29°12' W 094°43'0 0.0
2018-Jun-22 18:29N 29°12' W 094°43'0 0.1
2018-Jun-22 17:59N 29°11' W 094°43'0 0.1
2018-Jun-22 17:29N 29°12' W 094°43'0 0.0
2018-Jun-22 16:59N 29°12' W 094°43'0 0.0
2018-Jun-22 16:29N 29°12' W 094°43'0 0.1
2018-Jun-22 15:59N 29°12' W 094°43'0 0.1
2018-Jun-22 15:29N 29°11' W 094°43'0 0.0
2018-Jun-22 14:59N 29°11' W 094°43'1 1.1
2018-Jun-22 14:30N 29°12' W 094°42'2 4.5
2018-Jun-22 14:00N 29°11' W 094°39'4 8.2
2018-Jun-22 13:30N 29°13' W 094°35'510.6
2018-Jun-22 13:00N 29°13' W 094°29'5 9.3
2018-Jun-22 12:26N 29°10' W 094°24'1011.6
2018-Jun-22 11:35N 28°60' W 094°24'511.6
2018-Jun-22 11:07N 28°54' W 094°24'1211.9
2018-Jun-22 10:07N 28°42' W 094°25'611.7
2018-Jun-22 09:34N 28°36' W 094°25'111.6
2018-Jun-22 09:29N 28°35' W 094°26'14 8.4
2018-Jun-22 07:48N 28°29' W 094°40'1 2.5
2018-Jun-22 07:26N 28°28' W 094°40'0 0.3
2018-Jun-22 06:17N 28°29' W 094°40'0 0.0
2018-Jun-22 06:00N 28°29' W 094°40'0 0.0
2018-Jun-22 05:27N 28°29' W 094°40'0 0.0
2018-Jun-22 04:55N 28°29' W 094°40'0 0.0
2018-Jun-22 04:27N 28°29' W 094°40'0 0.0
2018-Jun-22 03:12N 28°29' W 094°40'0 0.0
2018-Jun-22 02:49N 28°29' W 094°40'0 0.0
2018-Jun-22 02:29N 28°29' W 094°40'0 0.0
2018-Jun-22 02:00N 28°29' W 094°40'0 0.0
2018-Jun-22 01:22N 28°29' W 094°40'0 0.0
2018-Jun-22 01:00N 28°29' W 094°40'0 0.0
2018-Jun-22 00:30N 28°29' W 094°40'0 0.0
2018-Jun-22 00:00N 28°29' W 094°40'0 0.0
2018-Jun-21 23:30N 28°29' W 094°40'0 0.0
2018-Jun-21 23:00N 28°29' W 094°40'0 0.0
2018-Jun-21 22:30N 28°29' W 094°40'0 0.0
2018-Jun-21 22:00N 28°29' W 094°40'0 0.0
2018-Jun-21 21:30N 28°29' W 094°40'0 0.0
2018-Jun-21 20:58N 28°29' W 094°40'0 0.0
2018-Jun-21 20:30N 28°29' W 094°40'0 0.0
2018-Jun-21 20:00N 28°29' W 094°40'0 0.0
2018-Jun-21 19:30N 28°29' W 094°40'0 0.1
2018-Jun-21 18:59N 28°29' W 094°40'0 0.0
2018-Jun-21 18:28N 28°29' W 094°40'0 0.0
2018-Jun-21 18:00N 28°29' W 094°40'0 0.0
2018-Jun-21 17:30N 28°29' W 094°40'0 0.0
2018-Jun-21 17:00N 28°29' W 094°40'0 0.0
2018-Jun-21 16:30N 28°29' W 094°40'0 0.0
2018-Jun-21 15:43N 28°29' W 094°40'0 0.0
2018-Jun-21 15:30N 28°29' W 094°40'0 0.1
2018-Jun-21 14:59N 28°29' W 094°40'0 0.0
2018-Jun-21 14:28N 28°29' W 094°40'0 0.0
2018-Jun-21 14:00N 28°29' W 094°40'0 0.3
2018-Jun-21 13:30N 28°29' W 094°40'1 1.6
2018-Jun-21 12:59N 28°29' W 094°39'3 4.8
2018-Jun-21 12:24N 28°28' W 094°36'2 4.9
2018-Jun-21 11:56N 28°28' W 094°33'4 6.5
2018-Jun-21 11:23N 28°29' W 094°30'14 3.8
2018-Jun-21 07:44N 28°38' W 094°42'310.7
2018-Jun-21 07:29N 28°41' W 094°44'1 1.3
2018-Jun-21 06:27N 28°42' W 094°44'0 0.0
2018-Jun-21 05:54N 28°42' W 094°44'0 0.0
2018-Jun-21 05:30N 28°42' W 094°44'0 0.0
2018-Jun-21 04:51N 28°42' W 094°44'0 0.0
2018-Jun-21 00:09N 28°42' W 094°44'0 0.0
2018-Jun-20 00:12N 28°42' W 094°44'0 0.0
2018-Jun-19 16:06N 28°42' W 094°44'0 0.0
2018-Jun-19 09:42N 28°42' W 094°44'0 0.1
2018-Jun-19 09:27N 28°42' W 094°44'0 0.0
2018-Jun-18 14:27N 28°42' W 094°44'0 0.1
2018-Jun-18 13:51N 28°42' W 094°44'0 0.1
2018-Jun-18 13:24N 28°42' W 094°44'0 0.1
2018-Jun-18 12:54N 28°42' W 094°44'0 0.0
2018-Jun-18 11:39N 28°42' W 094°44'0 0.0
2018-Jun-18 11:21N 28°42' W 094°44'0 0.0
2018-Jun-16 15:21N 28°42' W 094°44'0 0.0
2018-Jun-16 13:54N 28°42' W 094°44'0 0.0
2018-Jun-16 08:24N 28°42' W 094°44'1 0.4
2018-Jun-16 04:37N 28°41' W 094°45'  
Track history (hours):
 
Tides and Currents Weather Stations Pressure Air Temp Water Temp Dewpoint Dewpoint Depression Visibility Wind Speed Wind Dir Waves Ship Positions

Paramount Hamilton

Last reported at 2018-Jun-24 14:58 UTC. Time now 2018-Jun-24 15:02 UTC.
Position N 29°44' W 095°01'.

Length 249 m; draft 11.3 m.

Type: Tanker. MMSI: 235076274.

Date/timePositionNaut miles runAvg speedWind from/ knotsBaromVisibWave heightAir tempDewpointWater temp
2018-Jun-24 14:58N 29°44' W 095°01'0 0.0
2018-Jun-24 14:25N 29°44' W 095°01'0 0.0
2018-Jun-24 13:58N 29°44' W 095°01'0 0.0
2018-Jun-24 13:28N 29°44' W 095°01'0 0.0
2018-Jun-24 12:58N 29°44' W 095°01'0 0.0
2018-Jun-24 12:16N 29°44' W 095°01'0 0.0
2018-Jun-24 11:58N 29°44' W 095°01'0 0.0
2018-Jun-23 22:24N 29°44' W 095°01'1 2.0
2018-Jun-23 21:57N 29°43' W 095°01'3 6.9
2018-Jun-23 21:28N 29°40' W 094°59'4 9.3
2018-Jun-23 21:00N 29°36' W 094°57'5 9.9
2018-Jun-23 20:29N 29°32' W 094°54'510.1
2018-Jun-23 20:00N 29°28' W 094°51'510.3
2018-Jun-23 19:30N 29°23' W 094°49'5 9.6
2018-Jun-23 19:01N 29°21' W 094°44'510.2
2018-Jun-23 18:30N 29°19' W 094°38'6 9.1
2018-Jun-23 17:48N 29°15' W 094°32'1 1.7
2018-Jun-23 17:23N 29°15' W 094°32'2 4.2
2018-Jun-23 17:00N 29°14' W 094°33'3 6.4
2018-Jun-23 16:30N 29°13' W 094°37'3 5.7
2018-Jun-23 16:00N 29°12' W 094°40'2 4.6
2018-Jun-23 15:30N 29°11' W 094°42'0 0.4
2018-Jun-23 14:59N 29°11' W 094°42'0 0.0
2018-Jun-23 14:29N 29°11' W 094°42'0 0.0
2018-Jun-23 13:59N 29°11' W 094°42'0 0.0
2018-Jun-23 13:29N 29°11' W 094°42'0 0.0
2018-Jun-23 12:59N 29°11' W 094°42'0 0.0
2018-Jun-23 12:29N 29°11' W 094°42'0 0.0
2018-Jun-23 11:59N 29°11' W 094°42'0 0.0
2018-Jun-23 11:29N 29°12' W 094°42'0 0.0
2018-Jun-23 10:59N 29°12' W 094°42'0 0.0
2018-Jun-23 10:29N 29°12' W 094°42'0 0.0
2018-Jun-23 09:59N 29°12' W 094°42'0 0.0
2018-Jun-23 09:29N 29°12' W 094°42'0 0.0
2018-Jun-23 08:59N 29°12' W 094°42'0 0.0
2018-Jun-23 08:29N 29°12' W 094°42'0 0.0
2018-Jun-23 07:59N 29°12' W 094°42'0 0.0
2018-Jun-23 07:29N 29°12' W 094°42'0 0.0
2018-Jun-23 06:56N 29°12' W 094°42'0 0.0
2018-Jun-23 06:29N 29°12' W 094°42'0 0.0
2018-Jun-23 05:59N 29°12' W 094°42'0 0.0
2018-Jun-23 05:29N 29°12' W 094°42'0 0.0
2018-Jun-23 04:59N 29°12' W 094°42'0 0.0
2018-Jun-23 04:29N 29°12' W 094°42'0 0.0
2018-Jun-23 03:59N 29°12' W 094°42'0 0.0
2018-Jun-23 03:29N 29°12' W 094°42'0 0.0
2018-Jun-23 02:59N 29°12' W 094°42'0 0.0
2018-Jun-23 02:29N 29°12' W 094°42'0 0.0
2018-Jun-23 01:59N 29°12' W 094°42'0 0.0
2018-Jun-23 01:29N 29°12' W 094°42'0 0.0
2018-Jun-23 00:59N 29°12' W 094°42'0 0.0
2018-Jun-23 00:29N 29°12' W 094°42'0 0.0
2018-Jun-22 23:59N 29°12' W 094°42'0 0.0
2018-Jun-22 23:29N 29°12' W 094°43'0 0.0
2018-Jun-22 22:59N 29°12' W 094°43'0 0.0
2018-Jun-22 22:29N 29°12' W 094°43'0 0.0
2018-Jun-22 21:59N 29°12' W 094°43'0 0.0
2018-Jun-22 21:29N 29°12' W 094°43'0 0.0
2018-Jun-22 20:59N 29°12' W 094°43'0 0.0
2018-Jun-22 20:29N 29°12' W 094°43'0 0.0
2018-Jun-22 19:59N 29°12' W 094°43'0 0.0
2018-Jun-22 19:29N 29°12' W 094°43'0 0.0
2018-Jun-22 18:59N 29°12' W 094°43'0 0.0
2018-Jun-22 18:29N 29°12' W 094°43'0 0.1
2018-Jun-22 17:59N 29°11' W 094°43'0 0.1
2018-Jun-22 17:29N 29°12' W 094°43'0 0.0
2018-Jun-22 16:59N 29°12' W 094°43'0 0.0
2018-Jun-22 16:29N 29°12' W 094°43'0 0.1
2018-Jun-22 15:59N 29°12' W 094°43'0 0.1
2018-Jun-22 15:29N 29°11' W 094°43'0 0.0
2018-Jun-22 14:59N 29°11' W 094°43'1 1.1
2018-Jun-22 14:30N 29°12' W 094°42'2 4.5
2018-Jun-22 14:00N 29°11' W 094°39'4 8.2
2018-Jun-22 13:30N 29°13' W 094°35'510.6
2018-Jun-22 13:00N 29°13' W 094°29'5 9.3
2018-Jun-22 12:26N 29°10' W 094°24'1011.6
2018-Jun-22 11:35N 28°60' W 094°24'511.6
2018-Jun-22 11:07N 28°54' W 094°24'1211.9
2018-Jun-22 10:07N 28°42' W 094°25'611.7
2018-Jun-22 09:34N 28°36' W 094°25'111.6
2018-Jun-22 09:29N 28°35' W 094°26'14 8.4
2018-Jun-22 07:48N 28°29' W 094°40'1 2.5
2018-Jun-22 07:26N 28°28' W 094°40'0 0.3
2018-Jun-22 06:17N 28°29' W 094°40'0 0.0
2018-Jun-22 06:00N 28°29' W 094°40'0 0.0
2018-Jun-22 05:27N 28°29' W 094°40'0 0.0
2018-Jun-22 04:55N 28°29' W 094°40'0 0.0
2018-Jun-22 04:27N 28°29' W 094°40'0 0.0
2018-Jun-22 03:12N 28°29' W 094°40'0 0.0
2018-Jun-22 02:49N 28°29' W 094°40'0 0.0
2018-Jun-22 02:29N 28°29' W 094°40'0 0.0
2018-Jun-22 02:00N 28°29' W 094°40'0 0.0
2018-Jun-22 01:22N 28°29' W 094°40'0 0.0
2018-Jun-22 01:00N 28°29' W 094°40'0 0.0
2018-Jun-22 00:30N 28°29' W 094°40'0 0.0
2018-Jun-22 00:00N 28°29' W 094°40'0 0.0
2018-Jun-21 23:30N 28°29' W 094°40'0 0.0
2018-Jun-21 23:00N 28°29' W 094°40'0 0.0
2018-Jun-21 22:30N 28°29' W 094°40'0 0.0
2018-Jun-21 22:00N 28°29' W 094°40'0 0.0
2018-Jun-21 21:30N 28°29' W 094°40'0 0.0
2018-Jun-21 20:58N 28°29' W 094°40'0 0.0
2018-Jun-21 20:30N 28°29' W 094°40'0 0.0
2018-Jun-21 20:00N 28°29' W 094°40'0 0.0
2018-Jun-21 19:30N 28°29' W 094°40'0 0.1
2018-Jun-21 18:59N 28°29' W 094°40'0 0.0
2018-Jun-21 18:28N 28°29' W 094°40'0 0.0
2018-Jun-21 18:00N 28°29' W 094°40'0 0.0
2018-Jun-21 17:30N 28°29' W 094°40'0 0.0
2018-Jun-21 17:00N 28°29' W 094°40'0 0.0
2018-Jun-21 16:30N 28°29' W 094°40'0 0.0
2018-Jun-21 15:43N 28°29' W 094°40'0 0.0
2018-Jun-21 15:30N 28°29' W 094°40'0 0.1
2018-Jun-21 14:59N 28°29' W 094°40'0 0.0
2018-Jun-21 14:28N 28°29' W 094°40'0 0.0
2018-Jun-21 14:00N 28°29' W 094°40'0 0.3
2018-Jun-21 13:30N 28°29' W 094°40'1 1.6
2018-Jun-21 12:59N 28°29' W 094°39'3 4.8
2018-Jun-21 12:24N 28°28' W 094°36'2 4.9
2018-Jun-21 11:56N 28°28' W 094°33'4 6.5
2018-Jun-21 11:23N 28°29' W 094°30'14 3.8
2018-Jun-21 07:44N 28°38' W 094°42'310.7
2018-Jun-21 07:29N 28°41' W 094°44'1 1.3
2018-Jun-21 06:27N 28°42' W 094°44'0 0.0
2018-Jun-21 05:54N 28°42' W 094°44'0 0.0
2018-Jun-21 05:30N 28°42' W 094°44'0 0.0
2018-Jun-21 04:51N 28°42' W 094°44'0 0.0
2018-Jun-21 00:09N 28°42' W 094°44'0 0.0
2018-Jun-20 00:12N 28°42' W 094°44'0 0.0
2018-Jun-19 16:06N 28°42' W 094°44'0 0.0
2018-Jun-19 09:42N 28°42' W 094°44'0 0.1
2018-Jun-19 09:27N 28°42' W 094°44'0 0.0
2018-Jun-18 14:27N 28°42' W 094°44'0 0.1
2018-Jun-18 13:51N 28°42' W 094°44'0 0.1
2018-Jun-18 13:24N 28°42' W 094°44'0 0.1
2018-Jun-18 12:54N 28°42' W 094°44'0 0.0
2018-Jun-18 11:39N 28°42' W 094°44'0 0.0
2018-Jun-18 11:21N 28°42' W 094°44'0 0.0
2018-Jun-16 15:21N 28°42' W 094°44'0 0.0
2018-Jun-16 13:54N 28°42' W 094°44'0 0.0
2018-Jun-16 08:24N 28°42' W 094°44'1 0.4
2018-Jun-16 04:37N 28°41' W 094°45'  

Dump ship's entire track history